Time;durP1;ratioP1;P1;durP2;ratioP2;P2;SDS_P1;SDS_P2;PMS_P1;PMS_P2;Temp;Humidity;BMP_temperature;BMP_pressure;BME280_temperature;BME280_humidity;BME280_pressure;Samples;Min_cycle;Max_cycle;Signal;HPM_P1;HPM_P2
2022/10/21 00:00:30;;;;;;;32.22;14.85;;;11.40;99.90;;;;;;5037096;28;20065;-68
2022/10/21 00:02:55;;;;;;;31.40;15.50;;;11.40;99.90;;;;;;5071084;28;20048;-68
2022/10/21 00:05:22;;;;;;;23.38;13.93;;;11.40;99.90;;;;;;5070698;28;20404;-68
2022/10/21 00:07:47;;;;;;;25.48;14.90;;;11.40;99.90;;;;;;5072340;28;20046;-68
2022/10/21 00:10:13;;;;;;;27.10;14.60;;;11.30;99.90;;;;;;5072362;28;20289;-68
2022/10/21 00:12:39;;;;;;;27.40;14.93;;;11.30;99.90;;;;;;5070731;28;20040;-68
2022/10/21 00:15:07;;;;;;;27.70;14.63;;;11.30;99.90;;;;;;5072064;28;20036;-68
2022/10/21 00:17:37;;;;;;;28.95;14.18;;;11.30;99.90;;;;;;5071895;28;20044;-68
2022/10/21 00:20:04;;;;;;;30.08;14.93;;;11.40;99.90;;;;;;5072662;28;20040;-68
2022/10/21 00:22:30;;;;;;;25.90;14.60;;;11.40;99.90;;;;;;5071136;28;20040;-68
2022/10/21 00:24:56;;;;;;;23.63;13.77;;;11.40;99.90;;;;;;5071844;28;20040;-67
2022/10/21 00:27:22;;;;;;;24.30;13.40;;;11.40;99.90;;;;;;5072278;28;20032;-68
2022/10/21 00:29:47;;;;;;;26.30;15.10;;;11.40;99.90;;;;;;5071586;28;20124;-68
2022/10/21 00:32:13;;;;;;;25.13;13.32;;;11.40;99.90;;;;;;5072022;28;20441;-68
2022/10/21 00:34:41;;;;;;;27.30;14.82;;;11.40;99.90;;;;;;5070266;28;20097;-68
2022/10/21 00:37:10;;;;;;;26.67;14.00;;;11.40;99.90;;;;;;5071928;28;20044;-68
2022/10/21 00:39:37;;;;;;;28.90;13.55;;;11.40;99.90;;;;;;5072052;28;20048;-68
2022/10/21 00:42:04;;;;;;;31.23;16.25;;;11.40;99.90;;;;;;5070551;28;20040;-68
2022/10/21 00:44:30;;;;;;;29.50;15.02;;;11.40;99.90;;;;;;5070045;28;20563;-68
2022/10/21 00:47:07;;;;;;;27.67;14.63;;;11.30;99.90;;;;;;5072080;28;20064;-68
2022/10/21 00:49:54;;;;;;;24.88;14.00;;;11.40;99.90;;;;;;5070767;28;20041;-68
2022/10/21 00:52:22;;;;;;;27.83;14.57;;;11.30;99.90;;;;;;5072045;28;20043;-68
2022/10/21 00:54:53;;;;;;;26.92;13.65;;;11.30;99.90;;;;;;5071423;28;20586;-68
2022/10/21 00:57:21;;;;;;;26.87;13.33;;;11.30;99.90;;;;;;5071911;28;20041;-68
2022/10/21 00:59:52;;;;;;;27.92;13.93;;;11.30;99.90;;;;;;5071829;28;20115;-68
2022/10/21 01:02:18;;;;;;;27.05;13.45;;;11.30;99.90;;;;;;5070313;28;20083;-68
2022/10/21 01:04:45;;;;;;;22.52;13.50;;;11.20;99.90;;;;;;5071224;28;20051;-68
2022/10/21 01:07:11;;;;;;;26.23;13.18;;;11.20;99.90;;;;;;5071425;28;20041;-68
2022/10/21 01:09:37;;;;;;;24.55;13.68;;;11.20;99.90;;;;;;5071940;28;20040;-68
2022/10/21 01:12:07;;;;;;;23.50;13.50;;;11.20;99.90;;;;;;5071462;28;20036;-68
2022/10/21 01:14:38;;;;;;;23.15;13.10;;;11.20;99.90;;;;;;5071209;28;20051;-68
2022/10/21 01:17:15;;;;;;;28.80;13.38;;;11.20;99.90;;;;;;5071676;28;20094;-68
2022/10/21 01:20:14;;;;;;;23.98;12.80;;;11.20;99.90;;;;;;5071806;28;20211;-68
2022/10/21 01:22:54;;;;;;;22.70;12.07;;;11.20;99.90;;;;;;5071664;28;20090;-68
2022/10/21 01:25:23;;;;;;;24.13;13.80;;;11.10;99.90;;;;;;5071371;28;20045;-68
2022/10/21 01:27:54;;;;;;;24.00;12.48;;;11.10;99.90;;;;;;5070753;28;20041;-68
2022/10/21 01:30:40;;;;;;;23.55;12.85;;;11.10;99.90;;;;;;5071419;28;20040;-68
2022/10/21 01:33:26;;;;;;;22.38;14.05;;;11.20;99.90;;;;;;5071223;28;20501;-68
2022/10/21 01:35:57;;;;;;;22.13;12.15;;;11.20;99.90;;;;;;5071309;28;20036;-68
2022/10/21 01:38:44;;;;;;;24.17;13.57;;;11.20;99.90;;;;;;5071167;28;20612;-68
2022/10/21 01:41:25;;;;;;;23.88;13.10;;;11.30;99.90;;;;;;5071486;28;20044;-68
2022/10/21 01:44:22;;;;;;;26.02;13.77;;;11.30;99.90;;;;;;5074906;28;20075;-68
2022/10/21 01:47:05;;;;;;;25.33;13.23;;;11.30;99.90;;;;;;5075235;28;20120;-68
2022/10/21 01:49:39;;;;;;;;;;;11.30;99.90;;;;;;5075374;28;20040;-68
2022/10/21 01:52:06;;;;;;;25.95;13.32;;;11.30;99.90;;;;;;5073749;28;20003;-68
2022/10/21 01:54:37;;;;;;;26.05;13.50;;;11.30;99.90;;;;;;5074727;28;20036;-68
2022/10/21 01:57:05;;;;;;;22.98;13.65;;;11.40;99.90;;;;;;5074991;28;20036;-68
2022/10/21 01:59:32;;;;;;;27.73;14.27;;;11.40;99.90;;;;;;5074873;28;20036;-68
2022/10/21 02:02:01;;;;;;;27.73;13.63;;;11.40;99.90;;;;;;5074898;28;20041;-69
2022/10/21 02:04:29;;;;;;;25.73;13.88;;;11.50;99.90;;;;;;5074537;28;20037;-68
2022/10/21 02:06:55;;;;;;;29.38;15.38;;;11.50;99.90;;;;;;5074775;28;20036;-69
2022/10/21 02:09:20;;;;;;;26.35;14.40;;;11.50;99.90;;;;;;5074599;28;20489;-69
2022/10/21 02:11:50;;;;;;;28.27;15.02;;;11.60;99.90;;;;;;5074359;28;20043;-73
2022/10/21 02:14:26;;;;;;;25.23;13.55;;;11.60;99.90;;;;;;5073060;28;20041;-71
2022/10/21 02:16:53;;;;;;;29.35;14.07;;;11.60;99.90;;;;;;5073075;28;20115;-73
2022/10/21 02:19:19;;;;;;;24.80;15.10;;;11.60;99.90;;;;;;5073421;28;20045;-72
2022/10/21 02:21:48;;;;;;;26.20;14.10;;;11.60;99.90;;;;;;5074210;28;20041;-71
2022/10/21 02:24:26;;;;;;;22.70;14.27;;;11.60;99.90;;;;;;5073906;28;20044;-70
2022/10/21 02:26:52;;;;;;;27.90;14.35;;;11.70;99.90;;;;;;5074212;28;20048;-70
2022/10/21 02:29:22;;;;;;;28.83;14.90;;;11.70;99.90;;;;;;5074499;28;20392;-70
2022/10/21 02:32:12;;;;;;;24.23;14.48;;;11.70;99.90;;;;;;5073132;28;20287;-70
2022/10/21 02:35:05;;;;;;;25.15;13.63;;;11.80;99.90;;;;;;5073876;28;20041;-70
2022/10/21 02:37:35;;;;;;;;;;;11.80;99.90;;;;;;5074410;28;20040;-71
2022/10/21 02:40:21;;;;;;;24.58;13.60;;;11.90;99.90;;;;;;5074081;28;19916;-72
2022/10/21 02:42:52;;;;;;;22.27;13.32;;;11.90;99.90;;;;;;5073739;28;20044;-72
2022/10/21 02:45:20;;;;;;;27.60;13.73;;;11.90;99.90;;;;;;5073804;28;20072;-72
2022/10/21 02:47:47;;;;;;;24.33;13.38;;;11.90;99.90;;;;;;5074018;28;20047;-72
2022/10/21 02:50:13;;;;;;;25.70;13.55;;;11.90;99.90;;;;;;5073855;28;20037;-71
2022/10/21 02:52:39;;;;;;;24.05;14.70;;;11.90;99.90;;;;;;5072306;28;20044;-71
2022/10/21 02:55:05;;;;;;;24.17;14.07;;;11.90;99.90;;;;;;5073497;28;20489;-72
2022/10/21 02:57:30;;;;;;;24.52;13.80;;;12.00;99.90;;;;;;5073506;28;20079;-72
2022/10/21 02:59:56;;;;;;;23.92;12.73;;;12.00;99.90;;;;;;5073557;28;20622;-71
2022/10/21 03:02:21;;;;;;;26.75;13.40;;;11.90;99.90;;;;;;5073922;28;20093;-69
2022/10/21 03:04:47;;;;;;;24.45;13.23;;;12.00;99.90;;;;;;5073215;28;20127;-69
2022/10/21 03:07:12;;;;;;;22.58;13.23;;;12.00;99.90;;;;;;5073545;28;20089;-69
2022/10/21 03:09:38;;;;;;;24.45;14.00;;;12.00;99.90;;;;;;5073342;28;20046;-69
2022/10/21 03:12:03;;;;;;;22.20;12.70;;;12.10;99.90;;;;;;5073521;28;20046;-69
2022/10/21 03:14:29;;;;;;;25.75;13.20;;;12.10;99.90;;;;;;5071604;28;20051;-69
2022/10/21 03:16:54;;;;;;;24.10;12.57;;;12.00;99.90;;;;;;5073565;28;20138;-69
2022/10/21 03:19:20;;;;;;;22.23;13.15;;;12.10;99.90;;;;;;5073268;28;20097;-70
2022/10/21 03:21:45;;;;;;;24.48;13.00;;;12.00;99.90;;;;;;5073407;28;20132;-69
2022/10/21 03:24:11;;;;;;;20.52;11.57;;;12.00;99.90;;;;;;5071715;28;20127;-69
2022/10/21 03:26:36;;;;;;;24.60;12.73;;;12.00;99.90;;;;;;5072775;28;20079;-69
2022/10/21 03:29:02;;;;;;;22.27;11.60;;;11.90;99.90;;;;;;5073375;28;20064;-69
2022/10/21 03:31:27;;;;;;;21.38;12.85;;;11.90;99.90;;;;;;5072851;28;20047;-69
2022/10/21 03:33:53;;;;;;;23.75;11.95;;;11.90;99.90;;;;;;5072828;28;20051;-69
2022/10/21 03:36:19;;;;;;;20.42;12.05;;;11.90;99.90;;;;;;5071446;28;20044;-69
2022/10/21 03:38:45;;;;;;;25.10;11.57;;;11.90;99.90;;;;;;5072954;28;20106;-69
2022/10/21 03:41:10;;;;;;;22.25;12.98;;;11.90;99.90;;;;;;5072665;28;20131;-69
2022/10/21 03:43:36;;;;;;;24.80;12.18;;;11.90;99.90;;;;;;5072927;28;20032;-69
2022/10/21 03:46:01;;;;;;;22.08;13.10;;;11.90;99.90;;;;;;5072686;28;20036;-69
2022/10/21 03:48:27;;;;;;;22.02;12.63;;;11.90;99.90;;;;;;5071308;28;20051;-69
2022/10/21 03:50:55;;;;;;;23.50;13.20;;;11.90;99.90;;;;;;5072749;28;20032;-69
2022/10/21 03:53:21;;;;;;;23.02;14.35;;;11.90;99.90;;;;;;5072530;28;20040;-69
2022/10/21 03:55:47;;;;;;;26.90;14.70;;;11.80;99.90;;;;;;5072084;28;20462;-69
2022/10/21 03:58:12;;;;;;;37.00;14.55;;;11.90;99.90;;;;;;5071386;28;20123;-69
2022/10/21 04:00:38;;;;;;;37.10;15.18;;;11.90;99.90;;;;;;5071246;28;20501;-69
2022/10/21 04:03:03;;;;;;;34.35;14.63;;;11.90;99.90;;;;;;5072381;28;20511;-68
2022/10/21 04:05:29;;;;;;;33.95;15.80;;;11.90;99.90;;;;;;5071336;28;20037;-69
2022/10/21 04:07:54;;;;;;;29.70;14.88;;;11.90;99.90;;;;;;5071162;28;20032;-69
2022/10/21 04:10:20;;;;;;;31.60;14.77;;;11.90;99.90;;;;;;5072444;28;20119;-68
2022/10/21 04:12:45;;;;;;;30.10;14.23;;;11.90;99.90;;;;;;5072355;28;20040;-69
2022/10/21 04:15:13;;;;;;;31.65;14.98;;;11.90;99.90;;;;;;5070794;28;20130;-69
2022/10/21 04:17:39;;;;;;;26.95;15.15;;;11.90;99.90;;;;;;5072383;28;20382;-69
2022/10/21 04:20:05;;;;;;;22.73;13.85;;;12.00;99.90;;;;;;5070757;28;20079;-69
2022/10/21 04:22:30;;;;;;;27.30;14.85;;;12.00;99.90;;;;;;5057644;28;20047;-69
2022/10/21 04:24:56;;;;;;;23.73;13.52;;;12.00;99.90;;;;;;5051441;28;20397;-69
2022/10/21 04:27:22;;;;;;;28.13;14.07;;;11.90;99.90;;;;;;5052124;28;20097;-69
2022/10/21 04:29:47;;;;;;;26.85;13.00;;;11.90;99.90;;;;;;5052059;28;20075;-69
2022/10/21 04:32:13;;;;;;;23.40;13.65;;;11.90;99.90;;;;;;5050691;28;20509;-69
2022/10/21 04:34:38;;;;;;;22.70;13.50;;;11.90;99.90;;;;;;5050484;28;20083;-68
2022/10/21 04:37:04;;;;;;;22.73;12.40;;;11.90;99.90;;;;;;5050411;28;20131;-69
2022/10/21 04:39:29;;;;;;;28.10;13.45;;;11.90;99.90;;;;;;5051956;28;20116;-68
2022/10/21 04:41:55;;;;;;;27.83;13.95;;;11.90;99.90;;;;;;5051887;28;20037;-69
2022/10/21 04:44:23;;;;;;;24.98;13.32;;;11.90;99.90;;;;;;5051730;28;20045;-68
2022/10/21 04:46:49;;;;;;;23.58;13.27;;;11.90;99.90;;;;;;5051569;28;20508;-69
2022/10/21 04:49:14;;;;;;;27.95;12.98;;;11.90;99.90;;;;;;5051835;28;20041;-69
2022/10/21 04:51:40;;;;;;;28.75;14.50;;;11.80;99.90;;;;;;5051857;28;20029;-69
2022/10/21 04:54:05;;;;;;;22.17;14.25;;;11.80;99.90;;;;;;5051715;28;20041;-68
2022/10/21 04:56:31;;;;;;;23.60;13.82;;;11.80;99.90;;;;;;5051501;28;20037;-68
2022/10/21 04:58:56;;;;;;;26.88;13.48;;;11.80;99.90;;;;;;5051930;28;20041;-69
2022/10/21 05:01:22;;;;;;;25.38;13.13;;;11.80;99.90;;;;;;5051876;28;20047;-69
2022/10/21 05:03:47;;;;;;;23.38;12.90;;;11.80;99.90;;;;;;5051228;28;20124;-69
2022/10/21 05:06:13;;;;;;;23.13;13.43;;;11.90;99.90;;;;;;5051522;28;20124;-69
2022/10/21 05:08:38;;;;;;;25.85;13.57;;;11.90;99.90;;;;;;5051310;28;20033;-68
2022/10/21 05:11:04;;;;;;;23.30;13.60;;;11.80;99.90;;;;;;5050240;28;20080;-69
2022/10/21 05:13:30;;;;;;;28.70;13.27;;;11.80;99.90;;;;;;5051262;28;20080;-68
2022/10/21 05:16:00;;;;;;;27.75;14.35;;;11.80;99.90;;;;;;5051623;28;20076;-69
2022/10/21 05:18:26;;;;;;;23.80;13.68;;;11.80;99.90;;;;;;5054526;28;20080;-68
2022/10/21 05:20:53;;;;;;;25.10;13.32;;;11.80;99.90;;;;;;5055601;28;20037;-68
2022/10/21 05:23:19;;;;;;;24.63;13.30;;;11.80;99.90;;;;;;5055224;28;20045;-69
2022/10/21 05:25:46;;;;;;;26.13;13.07;;;11.80;99.90;;;;;;5055222;28;20047;-69
2022/10/21 05:28:11;;;;;;;29.45;14.63;;;11.70;99.90;;;;;;5055600;28;20394;-68
2022/10/21 05:30:37;;;;;;;23.15;13.05;;;11.70;99.90;;;;;;5055382;28;20033;-68
2022/10/21 05:33:03;;;;;;;23.10;12.48;;;11.70;99.90;;;;;;5055337;28;20037;-68
2022/10/21 05:35:29;;;;;;;21.40;13.10;;;11.70;99.90;;;;;;5053540;28;20041;-68
2022/10/21 05:37:55;;;;;;;21.00;12.73;;;11.70;99.90;;;;;;5055409;28;20090;-68
2022/10/21 05:40:20;;;;;;;23.88;12.60;;;11.70;99.90;;;;;;5055290;28;20087;-68
2022/10/21 05:42:46;;;;;;;24.55;13.20;;;11.60;99.90;;;;;;5055358;28;20444;-68
2022/10/21 05:45:12;;;;;;;22.27;13.05;;;11.60;99.90;;;;;;5053293;28;20047;-68
2022/10/21 05:47:39;;;;;;;18.60;11.38;;;11.60;99.90;;;;;;5055266;28;20076;-68
2022/10/21 05:50:06;;;;;;;21.60;13.07;;;11.60;99.90;;;;;;5053874;28;20048;-68
2022/10/21 05:52:31;;;;;;;23.10;11.93;;;11.60;99.90;;;;;;5055155;28;20171;-68
2022/10/21 05:54:57;;;;;;;23.52;12.38;;;11.60;99.90;;;;;;5053433;28;20076;-68
2022/10/21 05:57:22;;;;;;;23.83;11.90;;;11.50;99.90;;;;;;5058177;28;20477;-68
2022/10/21 05:59:48;;;;;;;22.92;12.57;;;11.50;99.90;;;;;;5053827;28;20047;-68
2022/10/21 06:02:14;;;;;;;23.42;12.10;;;11.50;99.90;;;;;;5054716;28;20505;-68
2022/10/21 06:04:39;;;;;;;20.83;12.38;;;11.50;99.90;;;;;;5054420;28;20481;-68
2022/10/21 06:07:05;;;;;;;18.42;11.13;;;11.50;99.90;;;;;;5058624;28;20393;-68
2022/10/21 06:09:30;;;;;;;22.20;12.65;;;11.40;99.90;;;;;;5039042;28;20033;-68
2022/10/21 06:11:56;;;;;;;20.75;11.95;;;11.40;99.90;;;;;;5051416;28;20044;-68
2022/10/21 06:14:23;;;;;;;22.40;12.57;;;11.40;99.90;;;;;;5051052;28;20072;-68
2022/10/21 06:16:48;;;;;;;22.90;11.52;;;11.40;99.90;;;;;;5051777;28;20103;-68
2022/10/21 06:19:14;;;;;;;21.52;13.18;;;11.40;99.90;;;;;;5052643;28;20076;-68
2022/10/21 06:21:40;;;;;;;21.27;12.27;;;11.30;99.90;;;;;;5054284;28;20115;-68
2022/10/21 06:24:05;;;;;;;20.30;11.75;;;11.30;99.90;;;;;;5053231;28;20509;-68
2022/10/21 06:26:31;;;;;;;22.02;13.00;;;11.30;99.90;;;;;;5052719;28;20517;-68
2022/10/21 06:28:56;;;;;;;19.40;12.20;;;11.30;99.90;;;;;;5051671;28;20091;-68
2022/10/21 06:31:22;;;;;;;21.45;12.38;;;11.30;99.90;;;;;;5053367;28;20086;-68
2022/10/21 06:33:48;;;;;;;25.55;12.32;;;11.20;99.90;;;;;;5054006;28;20041;-68
2022/10/21 06:36:13;;;;;;;21.05;12.10;;;11.30;99.90;;;;;;5054189;28;20107;-68
2022/10/21 06:38:39;;;;;;;21.98;12.70;;;11.30;99.90;;;;;;5054217;28;20045;-68
2022/10/21 06:41:07;;;;;;;21.98;12.43;;;11.30;99.90;;;;;;5053085;28;20456;-68
2022/10/21 06:43:33;;;;;;;23.45;12.73;;;11.30;99.90;;;;;;5052775;28;20111;-68
2022/10/21 06:46:04;;;;;;;23.40;12.23;;;11.30;99.90;;;;;;5053589;28;20076;-68
2022/10/21 06:48:30;;;;;;;25.15;13.15;;;11.30;99.90;;;;;;5053964;28;20033;-68
2022/10/21 06:51:18;;;;;;;24.95;12.23;;;11.30;99.90;;;;;;5052403;28;20055;-68
2022/10/21 06:53:44;;;;;;;18.95;12.23;;;11.30;99.90;;;;;;5053893;28;20087;-68
2022/10/21 06:56:13;;;;;;;19.63;12.10;;;11.40;99.90;;;;;;5053568;28;20045;-68
2022/10/21 06:58:45;;;;;;;24.00;13.68;;;11.40;99.90;;;;;;5053797;28;20073;-68
2022/10/21 07:01:13;;;;;;;23.92;13.30;;;11.50;99.90;;;;;;5053573;28;20037;-68
2022/10/21 07:03:39;;;;;;;23.13;12.63;;;11.50;99.90;;;;;;5053754;28;20052;-68
2022/10/21 07:06:05;;;;;;;18.83;11.82;;;11.50;99.90;;;;;;5052173;28;20041;-68
2022/10/21 07:08:33;;;;;;;22.23;12.20;;;11.50;99.90;;;;;;5053699;28;20033;-69
2022/10/21 07:10:58;;;;;;;21.77;12.82;;;11.50;99.90;;;;;;5053574;28;20041;-68
2022/10/21 07:13:24;;;;;;;20.30;11.98;;;11.50;99.90;;;;;;5053379;28;20047;-68
2022/10/21 07:16:04;;;;;;;21.17;12.02;;;11.60;99.90;;;;;;5053057;28;20485;-68
2022/10/21 07:18:31;;;;;;;20.55;12.52;;;11.60;99.90;;;;;;5053584;28;20040;-69
2022/10/21 07:21:03;;;;;;;23.33;13.18;;;11.60;99.90;;;;;;5067790;28;20037;-68
2022/10/21 07:23:28;;;;;;;21.63;12.48;;;11.70;99.90;;;;;;5053126;28;20033;-69
2022/10/21 07:25:54;;;;;;;23.00;12.63;;;11.70;99.90;;;;;;5041245;28;20450;-69
2022/10/21 07:28:19;;;;;;;30.75;12.90;;;11.70;99.90;;;;;;5061590;28;20132;-68
2022/10/21 07:30:45;;;;;;;20.30;11.55;;;11.80;99.90;;;;;;5053418;28;20123;-68
2022/10/21 07:33:11;;;;;;;24.48;12.95;;;11.80;99.90;;;;;;5072353;28;20041;-68
2022/10/21 07:35:37;;;;;;;25.98;13.00;;;11.90;99.90;;;;;;5062314;28;20111;-68
2022/10/21 07:38:02;;;;;;;21.27;12.60;;;11.90;99.90;;;;;;5061850;28;20044;-68
2022/10/21 07:40:28;;;;;;;21.80;12.75;;;12.00;99.90;;;;;;5070593;28;20127;-68
2022/10/21 07:42:55;;;;;;;27.33;13.07;;;12.10;99.90;;;;;;5066984;28;20436;-68
2022/10/21 07:45:21;;;;;;;21.38;12.55;;;12.10;99.90;;;;;;5054552;28;20044;-67
2022/10/21 07:47:46;;;;;;;24.30;12.80;;;12.10;99.90;;;;;;5072027;28;20043;-68
2022/10/21 07:50:12;;;;;;;23.77;12.77;;;12.20;99.90;;;;;;5072212;28;20058;-68
2022/10/21 07:52:44;;;;;;;27.33;12.75;;;12.20;99.90;;;;;;5060867;28;20102;-68
2022/10/21 07:55:15;;;;;;;23.25;13.27;;;12.30;99.90;;;;;;5063020;28;20052;-68
2022/10/21 07:57:41;;;;;;;28.88;14.15;;;12.40;99.90;;;;;;5064214;28;20037;-68
2022/10/21 08:00:12;;;;;;;22.70;13.07;;;12.50;99.90;;;;;;5123159;27;20140;-67
2022/10/21 08:02:38;;;;;;;27.42;13.35;;;12.60;99.90;;;;;;5088599;28;20412;-67
2022/10/21 08:05:05;;;;;;;34.05;13.60;;;12.70;99.90;;;;;;5086647;28;20051;-67
2022/10/21 08:07:32;;;;;;;27.92;13.30;;;12.80;99.90;;;;;;5068623;28;20090;-72
2022/10/21 08:09:58;;;;;;;30.02;13.73;;;12.80;99.90;;;;;;5067039;28;20111;-68
2022/10/21 08:12:24;;;;;;;26.33;13.10;;;12.80;99.90;;;;;;5065220;28;20063;-67
2022/10/21 08:14:51;;;;;;;29.45;13.55;;;12.90;99.90;;;;;;5066496;28;20388;-68
2022/10/21 08:17:16;;;;;;;23.92;13.98;;;13.00;99.90;;;;;;5066713;28;20072;-67
2022/10/21 08:19:42;;;;;;;36.38;14.05;;;13.10;99.90;;;;;;5076099;28;20076;-67
2022/10/21 08:22:08;;;;;;;27.48;14.45;;;13.20;99.90;;;;;;5086409;28;20500;-67
2022/10/21 08:24:34;;;;;;;29.05;12.88;;;13.20;99.90;;;;;;5084919;28;20074;-67
2022/10/21 08:26:59;;;;;;;28.73;13.82;;;13.30;99.90;;;;;;5084848;28;20040;-67
2022/10/21 08:29:25;;;;;;;28.50;13.65;;;13.40;99.90;;;;;;5086237;28;20113;-67
2022/10/21 08:31:51;;;;;;;27.67;14.18;;;13.50;99.90;;;;;;5084982;28;20055;-67
2022/10/21 08:34:16;;;;;;;26.05;13.30;;;13.60;99.90;;;;;;5085680;28;20044;-67
2022/10/21 08:36:42;;;;;;;28.27;12.90;;;13.60;99.90;;;;;;5085463;28;20036;-69
2022/10/21 08:39:07;;;;;;;23.35;11.77;;;13.60;99.90;;;;;;5084340;28;20131;-70
2022/10/21 08:41:58;;;;;;;30.30;12.63;;;13.60;99.90;;;;;;5084185;28;20381;-67
2022/10/21 08:44:51;;;;;;;24.30;12.63;;;13.60;99.90;;;;;;5084349;28;20101;-67
2022/10/21 08:47:45;;;;;;;21.02;11.93;;;13.70;99.90;;;;;;5081360;28;20113;-67
2022/10/21 08:50:20;;;;;;;24.27;11.85;;;13.70;99.90;;;;;;5081693;28;20044;-67
2022/10/21 08:52:51;;;;;;;24.70;12.45;;;13.70;99.90;;;;;;5078094;28;20044;-67
2022/10/21 08:55:24;;;;;;;31.75;12.63;;;13.70;99.90;;;;;;5085515;28;20045;-67
2022/10/21 08:57:52;;;;;;;24.20;12.52;;;13.70;99.90;;;;;;5085297;28;20040;-68
2022/10/21 09:00:49;;;;;;;24.00;12.27;;;13.80;99.90;;;;;;5085626;28;20062;-70
2022/10/21 09:03:24;;;;;;;18.23;10.90;;;13.80;99.90;;;;;;5066793;28;20141;-67
2022/10/21 09:06:01;;;;;;;25.23;11.80;;;13.80;99.90;;;;;;5085835;28;20399;-67
2022/10/21 09:08:40;;;;;;;23.17;12.00;;;13.90;99.90;;;;;;5085617;28;20516;-67
2022/10/21 09:11:38;;;;;;;26.17;11.38;;;14.00;99.90;;;;;;5074859;28;20602;-68
2022/10/21 09:14:27;;;;;;;22.35;11.90;;;14.00;99.90;;;;;;5068645;28;20104;-68
2022/10/21 09:17:26;;;;;;;25.88;12.15;;;14.00;99.90;;;;;;5050975;28;20040;-68
2022/10/21 09:20:29;;;;;;;23.33;12.13;;;14.10;99.90;;;;;;5057631;28;20072;-67
2022/10/21 09:23:36;;;;;;;21.08;11.05;;;14.10;99.90;;;;;;5058548;28;20045;-68
2022/10/21 09:26:26;;;;;;;19.05;10.40;;;14.20;99.90;;;;;;5064795;28;20044;-69
2022/10/21 09:28:52;;;;;;;23.98;10.63;;;14.30;99.90;;;;;;5068381;28;20040;-69
2022/10/21 09:31:21;;;;;;;21.27;10.95;;;14.30;99.90;;;;;;5053376;28;20050;-69
2022/10/21 09:33:52;;;;;;;22.58;10.27;;;14.40;99.90;;;;;;5066814;28;20052;-70
2022/10/21 09:36:46;;;;;;;20.45;9.95;;;14.40;99.90;;;;;;5068549;28;20190;-70
2022/10/21 09:39:18;;;;;;;23.35;11.05;;;14.40;99.90;;;;;;5065228;28;20053;-70
2022/10/21 09:41:48;;;;;;;18.15;9.88;;;14.50;99.90;;;;;;5071601;28;20040;-67
2022/10/21 09:44:17;;;;;;;22.40;10.20;;;14.40;99.90;;;;;;5069652;28;20044;-67
2022/10/21 09:46:46;;;;;;;23.00;9.32;;;14.50;99.90;;;;;;5070799;28;20047;-67
2022/10/21 09:49:29;;;;;;;21.42;9.93;;;14.50;99.90;;;;;;5071485;28;20055;-66
2022/10/21 09:52:00;;;;;;;16.98;8.48;;;14.50;99.90;;;;;;5071124;28;20044;-67
2022/10/21 09:54:32;;;;;;;16.42;8.52;;;14.50;99.90;;;;;;5069128;28;20087;-67
2022/10/21 09:57:10;;;;;;;18.17;9.27;;;14.60;99.90;;;;;;5052410;28;20517;-69
2022/10/21 09:59:52;;;;;;;19.60;9.43;;;14.60;99.90;;;;;;5051608;28;20087;-67
2022/10/21 10:02:35;;;;;;;16.47;8.57;;;14.60;99.90;;;;;;5051605;28;20041;-66
2022/10/21 10:05:21;;;;;;;22.42;8.98;;;14.60;99.90;;;;;;5053201;28;20041;-66
2022/10/21 10:07:47;;;;;;;18.58;8.85;;;14.70;99.90;;;;;;5052836;28;20130;-66
2022/10/21 10:10:32;;;;;;;21.52;9.30;;;14.70;99.90;;;;;;5068639;28;20069;-66
2022/10/21 10:12:58;;;;;;;12.95;7.80;;;14.70;99.90;;;;;;5051399;28;20438;-66
2022/10/21 10:15:33;;;;;;;19.77;9.10;;;14.70;99.90;;;;;;5052735;28;20041;-66
2022/10/21 10:17:59;;;;;;;16.92;8.50;;;14.70;99.90;;;;;;5051225;28;20045;-67
2022/10/21 10:20:25;;;;;;;24.70;9.48;;;14.70;99.90;;;;;;5052457;28;20044;-66
2022/10/21 10:22:57;;;;;;;16.35;9.07;;;14.80;99.90;;;;;;5050607;28;20032;-66
2022/10/21 10:25:28;;;;;;;16.30;7.90;;;14.80;99.90;;;;;;5052206;28;20411;-66
2022/10/21 10:27:53;;;;;;;19.40;8.98;;;14.80;99.90;;;;;;5052655;28;20803;-66
2022/10/21 10:30:21;;;;;;;16.73;9.02;;;14.80;99.90;;;;;;5051370;28;20049;-66
2022/10/21 10:32:49;;;;;;;21.23;9.02;;;14.80;99.90;;;;;;5051317;28;20047;-66
2022/10/21 10:35:29;;;;;;;18.27;8.73;;;14.90;99.90;;;;;;5050240;28;20045;-66
2022/10/21 10:38:01;;;;;;;16.75;8.88;;;15.00;99.90;;;;;;5052234;28;20456;-67
2022/10/21 10:40:40;;;;;;;19.67;9.50;;;15.00;99.90;;;;;;5050811;28;20179;-67
2022/10/21 10:43:19;;;;;;;19.05;9.82;;;15.10;99.90;;;;;;5052502;28;20051;-70
2022/10/21 10:45:58;;;;;;;18.45;8.82;;;15.10;99.90;;;;;;5058039;28;20045;-67
2022/10/21 10:48:40;;;;;;;21.95;9.02;;;15.20;99.90;;;;;;5072581;28;20044;-67
2022/10/21 10:51:49;;;;;;;18.42;8.50;;;15.30;99.90;;;;;;5072375;28;20501;-68
2022/10/21 10:54:16;;;;;;;16.58;8.25;;;15.40;99.90;;;;;;5063180;28;20048;-66
2022/10/21 10:56:51;;;;;;;13.43;7.75;;;15.40;99.90;;;;;;5071051;28;20044;-66
2022/10/21 10:59:22;;;;;;;15.60;8.45;;;15.50;99.90;;;;;;5071590;28;20177;-66
2022/10/21 11:02:08;;;;;;;14.27;7.53;;;15.60;99.90;;;;;;5087399;28;20425;-66
2022/10/21 11:05:07;;;;;;;16.70;8.70;;;15.60;99.90;;;;;;5070719;28;20044;-66
2022/10/21 11:07:47;;;;;;;19.13;8.38;;;15.60;99.90;;;;;;5071971;28;20032;-66
2022/10/21 11:10:29;;;;;;;14.25;7.63;;;15.70;99.90;;;;;;5071946;28;20068;-66
2022/10/21 11:12:55;;;;;;;19.90;9.90;;;15.70;99.90;;;;;;5071675;28;20075;-66
2022/10/21 11:15:31;;;;;;;16.70;7.95;;;15.80;99.90;;;;;;5071210;28;20055;-67
2022/10/21 11:18:01;;;;;;;19.52;7.93;;;15.70;99.90;;;;;;5071014;28;20051;-66
2022/10/21 11:20:39;;;;;;;16.80;8.05;;;15.80;99.90;;;;;;5071398;28;20757;-66
2022/10/21 11:23:20;;;;;;;15.10;7.53;;;15.80;99.90;;;;;;5071843;28;20076;-66
2022/10/21 11:26:11;;;;;;;11.27;6.97;;;15.80;99.90;;;;;;5086776;28;20467;-66
2022/10/21 11:28:41;;;;;;;15.63;7.43;;;15.90;99.90;;;;;;5071787;28;20048;-66
2022/10/21 11:31:22;;;;;;;13.48;6.50;;;15.90;99.90;;;;;;5070133;28;20055;-66
2022/10/21 11:34:10;;;;;;;11.43;7.22;;;15.90;99.90;;;;;;5050538;28;20838;-66
2022/10/21 11:36:41;;;;;;;12.25;6.18;;;15.90;99.90;;;;;;5071505;28;20044;-66
2022/10/21 11:39:26;;;;;;;11.68;5.07;;;15.90;99.90;;;;;;5070528;28;20080;-66
2022/10/21 11:42:09;;;;;;;16.02;6.43;;;16.00;99.90;;;;;;5070601;28;20465;-70
2022/10/21 11:44:50;;;;;;;12.50;6.28;;;16.00;99.90;;;;;;5069928;28;20033;-69
2022/10/21 11:47:23;;;;;;;13.02;6.97;;;16.00;99.90;;;;;;5070095;28;20036;-70
2022/10/21 11:50:12;;;;;;;12.00;6.00;;;16.00;99.90;;;;;;5070794;28;20386;-69
2022/10/21 11:53:01;;;;;;;10.75;6.47;;;16.00;99.90;;;;;;5070442;28;20040;-70
2022/10/21 11:55:37;;;;;;;14.55;6.25;;;16.00;99.90;;;;;;5067273;28;20463;-70
2022/10/21 11:58:12;;;;;;;13.52;5.95;;;16.00;99.90;;;;;;5070119;28;20048;-70
2022/10/21 12:00:52;;;;;;;15.27;6.18;;;16.00;99.90;;;;;;5070109;28;20040;-70
2022/10/21 12:03:38;;;;;;;12.07;6.65;;;16.00;99.90;;;;;;5071750;28;20107;-69
2022/10/21 12:06:18;;;;;;;10.85;6.53;;;16.00;99.90;;;;;;5071039;28;20063;-69
2022/10/21 12:09:14;;;;;;;17.20;8.10;;;16.10;99.90;;;;;;5071698;28;20052;-70
2022/10/21 12:11:48;;;;;;;13.88;6.15;;;16.00;99.90;;;;;;5071397;28;20036;-69
2022/10/21 12:14:28;;;;;;;11.38;6.63;;;16.10;99.90;;;;;;5069899;28;20489;-69
2022/10/21 12:16:56;;;;;;;16.73;6.22;;;16.10;99.90;;;;;;5071041;28;20040;-69
2022/10/21 12:19:23;;;;;;;14.52;6.43;;;16.10;99.90;;;;;;5071404;28;20445;-69
2022/10/21 12:21:50;;;;;;;13.55;6.78;;;16.20;99.90;;;;;;5071429;28;20396;-70
2022/10/21 12:24:55;;;;;;;14.68;6.43;;;16.10;99.90;;;;;;5069746;28;20039;-69
2022/10/21 12:27:39;;;;;;;14.68;6.43;;;16.20;99.90;;;;;;5069307;28;20105;-70
2022/10/21 12:30:42;;;;;;;10.07;5.63;;;16.10;99.90;;;;;;5069184;28;20056;-69
2022/10/21 12:33:28;;;;;;;14.00;5.78;;;16.10;99.90;;;;;;5050128;28;20049;-69
2022/10/21 12:36:10;;;;;;;11.80;6.70;;;16.20;99.90;;;;;;5049616;28;20051;-69
2022/10/21 12:38:48;;;;;;;17.27;6.50;;;16.10;99.90;;;;;;5050923;28;20509;-70
2022/10/21 12:41:22;;;;;;;10.80;6.05;;;16.20;99.90;;;;;;5051243;28;20120;-69
2022/10/21 12:44:20;;;;;;;14.00;6.15;;;16.10;99.90;;;;;;5050671;28;20037;-70
2022/10/21 12:46:52;;;;;;;8.57;6.18;;;16.10;99.90;;;;;;5054152;28;20048;-69
2022/10/21 12:49:18;;;;;;;13.13;5.25;;;16.10;99.90;;;;;;5053770;28;20053;-70
2022/10/21 12:52:01;;;;;;;10.95;6.80;;;16.20;99.90;;;;;;5053803;28;20128;-66